createdAt,value
2022-08-28T00:00:15.715Z,20.72
2022-08-28T00:02:45.661Z,20.74
2022-08-28T00:05:14.512Z,20.77
2022-08-28T00:07:46.995Z,20.80
2022-08-28T00:10:17.756Z,20.78
2022-08-28T00:12:47.859Z,20.75
2022-08-28T00:15:20.339Z,20.56
2022-08-28T00:17:48.325Z,20.53
2022-08-28T00:20:18.603Z,20.55
2022-08-28T00:22:46.754Z,20.61
2022-08-28T00:25:16.073Z,20.60
2022-08-28T00:27:53.196Z,20.55
2022-08-28T00:30:25.645Z,20.59
2022-08-28T00:32:56.056Z,20.63
2022-08-28T00:35:23.913Z,20.62
2022-08-28T00:37:52.395Z,20.62
2022-08-28T00:40:28.821Z,20.61
2022-08-28T00:43:02.661Z,20.56
2022-08-28T00:45:37.307Z,20.44
2022-08-28T00:48:07.532Z,20.38
2022-08-28T00:51:00.530Z,20.37
2022-08-28T00:53:30.169Z,20.18
2022-08-28T00:56:10.366Z,20.27
2022-08-28T00:58:43.471Z,20.25
2022-08-28T01:01:12.791Z,20.23
2022-08-28T01:03:42.736Z,20.14
2022-08-28T01:06:11.044Z,20.13
2022-08-28T01:08:42.691Z,20.08
2022-08-28T01:11:13.600Z,20.07
2022-08-28T01:13:47.455Z,20.23
2022-08-28T01:16:19.391Z,20.36
2022-08-28T01:18:48.292Z,20.44
2022-08-28T01:21:27.641Z,20.47
2022-08-28T01:24:01.503Z,20.53
2022-08-28T01:26:29.975Z,20.58
2022-08-28T01:28:59.293Z,20.65
2022-08-28T01:31:31.070Z,20.76
2022-08-28T01:33:59.635Z,20.78
2022-08-28T01:36:29.127Z,20.78
2022-08-28T01:39:03.821Z,20.89
2022-08-28T01:41:31.641Z,20.91
2022-08-28T01:43:59.743Z,20.96
2022-08-28T01:46:28.194Z,20.96
2022-08-28T01:48:56.006Z,20.96
2022-08-28T01:51:24.716Z,20.94
2022-08-28T01:53:52.743Z,20.95
2022-08-28T01:56:20.576Z,20.99
2022-08-28T01:58:48.288Z,20.99
2022-08-28T02:01:20.343Z,20.98
2022-08-28T02:03:48.974Z,20.97
2022-08-28T02:06:18.050Z,20.97
2022-08-28T02:08:46.767Z,20.97
2022-08-28T02:11:15.855Z,20.97
2022-08-28T02:13:43.477Z,20.99
2022-08-28T02:16:11.534Z,20.98
2022-08-28T02:18:39.734Z,20.85
2022-08-28T02:21:07.777Z,20.77
2022-08-28T02:23:36.872Z,20.61
2022-08-28T02:26:04.837Z,20.66
2022-08-28T02:28:32.353Z,20.75
2022-08-28T02:30:59.961Z,20.74
2022-08-28T02:33:27.870Z,20.73
2022-08-28T02:35:55.349Z,20.69
2022-08-28T02:38:22.877Z,20.60
2022-08-28T02:40:52.245Z,20.61
2022-08-28T02:43:19.693Z,20.54
2022-08-28T02:45:49.277Z,20.51
2022-08-28T02:48:17.631Z,20.52
2022-08-28T02:50:46.510Z,20.57
2022-08-28T02:53:14.375Z,20.50
2022-08-28T02:55:42.164Z,20.43
2022-08-28T02:58:10.167Z,20.39
2022-08-28T03:00:37.675Z,20.42
2022-08-28T03:03:05.456Z,20.44
2022-08-28T03:05:33.060Z,20.46
2022-08-28T03:08:00.964Z,20.45
2022-08-28T03:10:28.775Z,20.39
2022-08-28T03:12:56.167Z,20.21
2022-08-28T03:15:23.646Z,20.14
2022-08-28T03:17:51.324Z,19.96
2022-08-28T03:20:19.108Z,19.94
2022-08-28T03:23:05.166Z,19.94
2022-08-28T03:25:33.188Z,19.93
2022-08-28T03:28:01.553Z,19.93
2022-08-28T03:30:29.438Z,19.91
2022-08-28T03:32:57.257Z,19.91
2022-08-28T03:35:24.681Z,19.91
2022-08-28T03:37:52.604Z,19.97
2022-08-28T03:40:21.588Z,19.99
2022-08-28T03:42:53.484Z,20.01
2022-08-28T03:45:22.005Z,20.00
2022-08-28T03:47:50.826Z,19.98
2022-08-28T03:50:18.602Z,19.91
2022-08-28T03:52:48.063Z,19.95
2022-08-28T03:55:16.707Z,19.92
2022-08-28T03:57:44.278Z,19.88
2022-08-28T04:00:13.460Z,19.84
2022-08-28T04:02:42.697Z,19.85
2022-08-28T04:05:11.188Z,19.80
2022-08-28T04:07:40.118Z,19.74
2022-08-28T04:10:08.541Z,19.76
2022-08-28T04:12:37.069Z,19.67
2022-08-28T04:15:06.976Z,19.44
2022-08-28T04:17:37.689Z,19.52
2022-08-28T04:20:06.409Z,19.58
2022-08-28T04:22:33.912Z,19.60
2022-08-28T04:25:01.689Z,19.58
2022-08-28T04:27:29.185Z,19.52
2022-08-28T04:29:56.645Z,19.54
2022-08-28T04:32:24.636Z,19.49
2022-08-28T04:34:52.295Z,19.55
2022-08-28T04:37:19.925Z,19.66
2022-08-28T04:39:50.492Z,19.68
2022-08-28T04:42:17.943Z,19.89
2022-08-28T04:44:45.464Z,19.96
2022-08-28T04:47:13.267Z,20.01
2022-08-28T04:49:40.801Z,20.05
2022-08-28T04:52:08.316Z,20.11
2022-08-28T04:54:36.047Z,20.19
2022-08-28T04:57:05.262Z,20.04
2022-08-28T04:59:34.309Z,20.03
2022-08-28T05:02:02.684Z,20.09
2022-08-28T05:04:30.171Z,20.22
2022-08-28T05:06:57.751Z,20.26
2022-08-28T05:09:25.440Z,20.41
2022-08-28T05:11:53.633Z,20.55
2022-08-28T05:14:21.826Z,20.71
2022-08-28T05:16:52.812Z,20.67
2022-08-28T05:19:21.319Z,20.67
2022-08-28T05:21:49.128Z,20.71
2022-08-28T05:24:16.938Z,20.92
2022-08-28T05:26:44.823Z,21.02
2022-08-28T05:29:16.981Z,21.03
2022-08-28T05:31:46.417Z,21.16
2022-08-28T05:34:15.169Z,21.27
2022-08-28T05:36:42.979Z,21.34
2022-08-28T05:39:11.999Z,21.44
2022-08-28T05:41:41.463Z,21.39
2022-08-28T05:44:12.392Z,21.43
2022-08-28T05:46:42.456Z,21.43
2022-08-28T05:49:10.758Z,21.50
2022-08-28T05:51:41.355Z,21.65
2022-08-28T05:54:09.266Z,21.74
2022-08-28T05:56:39.396Z,21.88
2022-08-28T05:59:07.792Z,21.73
2022-08-28T06:01:40.480Z,21.94
2022-08-28T06:04:14.712Z,21.70
2022-08-28T06:06:42.745Z,21.85
2022-08-28T06:09:19.265Z,22.10
2022-08-28T06:11:47.394Z,22.02
2022-08-28T06:14:18.105Z,22.14
2022-08-28T06:16:49.054Z,22.17
2022-08-28T06:19:17.648Z,22.22
2022-08-28T06:21:48.073Z,22.34
2022-08-28T06:24:15.557Z,22.56
2022-08-28T06:26:43.836Z,22.71
2022-08-28T06:29:13.227Z,22.75
2022-08-28T06:31:40.836Z,22.87
2022-08-28T06:34:09.366Z,22.61
2022-08-28T06:36:41.789Z,22.80
2022-08-28T06:39:11.755Z,23.07
2022-08-28T06:41:43.117Z,23.09
2022-08-28T06:44:13.836Z,23.08
2022-08-28T06:46:41.833Z,23.22
2022-08-28T06:49:09.612Z,23.15
2022-08-28T06:51:37.420Z,23.58
2022-08-28T06:54:05.672Z,23.55
2022-08-28T06:56:34.008Z,23.56
2022-08-28T06:59:02.389Z,23.53
2022-08-28T07:01:35.223Z,23.68
2022-08-28T07:04:08.956Z,24.02
2022-08-28T07:06:40.244Z,24.04
2022-08-28T07:09:11.328Z,24.21
2022-08-28T07:11:39.467Z,24.34
2022-08-28T07:14:07.941Z,24.50
2022-08-28T07:16:38.566Z,24.38
2022-08-28T07:19:11.185Z,24.42
2022-08-28T07:21:41.890Z,24.26
2022-08-28T07:24:12.913Z,24.35
2022-08-28T07:26:41.957Z,24.77
2022-08-28T07:29:11.447Z,24.67
2022-08-28T07:31:45.348Z,25.11
2022-08-28T07:34:14.057Z,25.08
2022-08-28T07:36:42.428Z,25.23
2022-08-28T07:39:12.234Z,25.39
2022-08-28T07:41:42.731Z,25.73
2022-08-28T07:44:31.860Z,25.71
2022-08-28T07:47:04.130Z,25.69
2022-08-28T07:49:33.847Z,25.74
2022-08-28T07:52:02.620Z,25.91
2022-08-28T07:54:30.124Z,25.81
2022-08-28T07:56:57.777Z,25.90
2022-08-28T07:59:25.588Z,26.17
2022-08-28T08:01:53.716Z,25.89
2022-08-28T08:04:23.329Z,25.86
2022-08-28T08:06:57.585Z,26.48
2022-08-28T08:09:27.124Z,26.57
2022-08-28T08:11:55.099Z,26.43
2022-08-28T08:14:23.416Z,26.78
2022-08-28T08:16:52.520Z,26.92
2022-08-28T08:19:20.527Z,27.12
2022-08-28T08:21:55.161Z,27.31
2022-08-28T08:24:26.529Z,27.37
2022-08-28T08:27:01.113Z,27.49
2022-08-28T08:29:36.050Z,27.42
2022-08-28T08:32:09.599Z,27.18
2022-08-28T08:34:40.318Z,27.54
2022-08-28T08:37:08.039Z,27.69
2022-08-28T08:39:36.736Z,27.97
2022-08-28T08:42:09.280Z,28.16
2022-08-28T08:44:43.392Z,28.34
2022-08-28T08:47:20.061Z,28.41
2022-08-28T08:50:00.297Z,28.48
2022-08-28T08:52:37.517Z,28.83
2022-08-28T08:55:07.863Z,28.93
2022-08-28T08:57:39.049Z,29.03
2022-08-28T09:00:15.061Z,29.13
2022-08-28T09:02:50.708Z,29.26
2022-08-28T09:05:22.651Z,29.34
2022-08-28T09:07:56.811Z,29.50
2022-08-28T09:10:34.897Z,29.49
2022-08-28T09:13:42.751Z,29.61
2022-08-28T09:16:19.434Z,29.76
2022-08-28T09:18:48.736Z,29.91
2022-08-28T09:21:29.604Z,30.02
2022-08-28T09:24:05.993Z,30.16
2022-08-28T09:26:39.540Z,30.24
2022-08-28T09:29:17.113Z,30.26
2022-08-28T09:31:44.890Z,30.03
2022-08-28T09:34:35.503Z,30.24
2022-08-28T09:37:08.305Z,30.28
2022-08-28T09:39:36.188Z,30.31
2022-08-28T09:42:37.734Z,30.51
2022-08-28T09:45:13.604Z,30.57
2022-08-28T09:47:48.945Z,30.73
2022-08-28T09:50:25.510Z,30.89
2022-08-28T09:52:56.155Z,30.98
2022-08-28T09:55:33.172Z,30.83
2022-08-28T09:58:01.316Z,30.79
2022-08-28T10:00:34.149Z,31.13
2022-08-28T10:03:37.811Z,31.24
2022-08-28T10:06:21.301Z,31.20
2022-08-28T10:08:58.131Z,31.29
2022-08-28T10:11:52.712Z,31.62
2022-08-28T10:14:34.496Z,31.62
2022-08-28T10:17:09.513Z,31.76
2022-08-28T10:19:59.297Z,31.77
2022-08-28T10:22:43.264Z,31.79
2022-08-28T10:25:19.815Z,31.69
2022-08-28T10:28:08.155Z,31.88
2022-08-28T10:30:44.606Z,32.17
2022-08-28T10:33:22.140Z,32.18
2022-08-28T10:35:58.161Z,32.11
2022-08-28T10:38:40.035Z,32.23
2022-08-28T10:41:16.873Z,31.99
2022-08-28T10:43:48.034Z,32.07
2022-08-28T10:46:28.717Z,32.22
2022-08-28T10:49:02.041Z,32.20
2022-08-28T10:51:43.613Z,31.99
2022-08-28T10:54:38.333Z,32.24
2022-08-28T10:57:18.228Z,32.15
2022-08-28T10:59:50.347Z,31.56
2022-08-28T11:02:22.482Z,32.34
2022-08-28T11:04:51.878Z,32.37
2022-08-28T11:07:54.044Z,32.51
2022-08-28T11:10:29.888Z,32.58
2022-08-28T11:12:58.905Z,32.74
2022-08-28T11:15:36.405Z,32.41
2022-08-28T11:18:14.118Z,32.37
2022-08-28T11:21:13.924Z,31.37
2022-08-28T11:23:47.844Z,31.78
2022-08-28T11:26:29.932Z,32.13
2022-08-28T11:28:58.773Z,32.74
2022-08-28T11:31:30.749Z,32.97
2022-08-28T11:34:00.129Z,33.13
2022-08-28T11:36:30.124Z,33.08
2022-08-28T11:39:02.277Z,33.23
2022-08-28T11:41:36.536Z,32.85
2022-08-28T11:44:04.364Z,33.32
2022-08-28T11:46:33.912Z,32.54
2022-08-28T11:49:05.276Z,33.20
2022-08-28T11:52:32.865Z,33.25
2022-08-28T11:55:09.305Z,33.43
2022-08-28T11:57:55.410Z,33.68
2022-08-28T12:00:35.945Z,33.42
2022-08-28T12:03:14.958Z,32.58
2022-08-28T12:05:50.914Z,33.14
2022-08-28T12:08:45.072Z,33.60
2022-08-28T12:11:40.249Z,33.66
2022-08-28T12:14:09.054Z,33.98
2022-08-28T12:17:01.020Z,34.04
2022-08-28T12:19:55.373Z,34.20
2022-08-28T12:22:39.508Z,34.03
2022-08-28T12:25:22.478Z,34.17
2022-08-28T12:27:51.097Z,34.23
2022-08-28T12:30:45.573Z,34.29
2022-08-28T12:33:26.163Z,34.17
2022-08-28T12:36:00.620Z,34.10
2022-08-28T12:38:31.527Z,34.20
2022-08-28T12:41:00.028Z,34.11
2022-08-28T12:43:32.101Z,33.82
2022-08-28T12:46:04.210Z,33.94
2022-08-28T12:48:35.149Z,34.04
2022-08-28T12:51:12.675Z,33.78
2022-08-28T12:53:50.699Z,33.11
2022-08-28T12:56:21.749Z,32.88
2022-08-28T12:58:50.048Z,32.64
2022-08-28T13:01:33.294Z,32.41
2022-08-28T13:04:32.684Z,32.74
2022-08-28T13:07:15.563Z,32.80
2022-08-28T13:09:48.632Z,33.03
2022-08-28T13:12:26.972Z,32.64
2022-08-28T13:15:07.437Z,32.36
2022-08-28T13:17:43.958Z,31.90
2022-08-28T13:20:24.905Z,31.52
2022-08-28T13:22:53.254Z,31.15
2022-08-28T13:25:31.839Z,29.93
2022-08-28T13:28:11.336Z,29.33
2022-08-28T13:30:39.296Z,28.18
2022-08-28T13:33:16.240Z,28.28
2022-08-28T13:35:43.863Z,28.16
2022-08-28T13:38:14.034Z,28.14
2022-08-28T13:41:03.728Z,28.61
2022-08-28T13:43:44.952Z,29.02
2022-08-28T13:46:12.659Z,29.40
2022-08-28T13:48:40.793Z,29.62
2022-08-28T13:51:12.057Z,29.78
2022-08-28T13:53:46.963Z,29.67
2022-08-28T13:56:14.489Z,29.42
2022-08-28T13:58:41.898Z,29.56
2022-08-28T14:01:11.063Z,29.84
2022-08-28T14:03:39.269Z,29.77
2022-08-28T14:06:18.346Z,29.56
2022-08-28T14:08:46.817Z,28.99
2022-08-28T14:11:15.678Z,29.25
2022-08-28T14:13:46.957Z,29.22
2022-08-28T14:16:25.188Z,29.13
2022-08-28T14:18:53.347Z,29.08
2022-08-28T14:21:21.875Z,28.87
2022-08-28T14:23:50.160Z,28.45
2022-08-28T14:26:17.601Z,28.56
2022-08-28T14:28:45.108Z,28.00
2022-08-28T14:31:14.836Z,28.04
2022-08-28T14:33:45.215Z,27.43
2022-08-28T14:36:20.258Z,27.57
2022-08-28T14:38:50.932Z,27.39
2022-08-28T14:41:23.015Z,27.43
2022-08-28T14:43:50.803Z,27.31
2022-08-28T14:46:28.546Z,27.46
2022-08-28T14:48:58.276Z,27.27
2022-08-28T14:51:26.862Z,27.35
2022-08-28T14:53:54.676Z,27.28
2022-08-28T14:56:22.675Z,27.22
2022-08-28T14:58:50.358Z,27.36
2022-08-28T15:01:25.422Z,27.37
2022-08-28T15:04:11.009Z,27.37
2022-08-28T15:06:39.296Z,27.39
2022-08-28T15:09:07.051Z,27.42
2022-08-28T15:11:35.812Z,27.47
2022-08-28T15:14:03.765Z,27.49
2022-08-28T15:16:36.556Z,27.47
2022-08-28T15:19:04.333Z,27.55
2022-08-28T15:21:40.824Z,27.83
2022-08-28T15:24:09.903Z,28.03
2022-08-28T15:26:40.065Z,28.24
2022-08-28T15:29:07.722Z,28.13
2022-08-28T15:31:38.170Z,28.37
2022-08-28T15:34:13.307Z,28.48
2022-08-28T15:36:43.872Z,28.51
2022-08-28T15:39:30.804Z,28.68
2022-08-28T15:41:59.401Z,28.84
2022-08-28T15:44:28.104Z,29.04
2022-08-28T15:47:00.923Z,29.15
2022-08-28T15:49:31.288Z,29.16
2022-08-28T15:52:00.251Z,28.91
2022-08-28T15:54:28.131Z,28.83
2022-08-28T15:56:56.008Z,28.79
2022-08-28T15:59:23.658Z,28.71
2022-08-28T16:01:55.903Z,28.59
2022-08-28T16:04:23.756Z,28.31
2022-08-28T16:06:58.532Z,28.11
2022-08-28T16:09:28.620Z,28.21
2022-08-28T16:11:56.057Z,28.10
2022-08-28T16:14:23.636Z,28.03
2022-08-28T16:16:51.352Z,28.02
2022-08-28T16:19:20.523Z,27.96
2022-08-28T16:21:49.968Z,27.86
2022-08-28T16:24:17.721Z,27.76
2022-08-28T16:26:45.320Z,27.68
2022-08-28T16:29:14.052Z,27.58
2022-08-28T16:31:41.897Z,27.53
2022-08-28T16:34:10.797Z,27.49
2022-08-28T16:36:38.820Z,27.46
2022-08-28T16:39:10.788Z,27.43
2022-08-28T16:41:39.095Z,27.35
2022-08-28T16:44:06.960Z,27.36
2022-08-28T16:46:34.496Z,27.28
2022-08-28T16:49:02.518Z,27.25
2022-08-28T16:51:30.371Z,27.18
2022-08-28T16:53:58.348Z,27.13
2022-08-28T16:56:26.551Z,27.09
2022-08-28T16:58:54.453Z,26.97
2022-08-28T17:01:24.252Z,26.90
2022-08-28T17:03:54.501Z,26.82
2022-08-28T17:06:25.056Z,26.76
2022-08-28T17:08:56.960Z,26.67
2022-08-28T17:11:26.523Z,26.66
2022-08-28T17:13:55.387Z,26.64
2022-08-28T17:16:23.897Z,26.55
2022-08-28T17:18:52.943Z,26.52
2022-08-28T17:21:40.010Z,26.55
2022-08-28T17:24:09.662Z,26.53
2022-08-28T17:26:37.179Z,26.47
2022-08-28T17:29:05.763Z,26.44
2022-08-28T17:31:33.869Z,26.39
2022-08-28T17:34:01.395Z,26.35
2022-08-28T17:36:33.501Z,26.25
2022-08-28T17:39:04.593Z,26.31
2022-08-28T17:41:33.384Z,26.25
2022-08-28T17:44:02.245Z,26.19
2022-08-28T17:46:32.861Z,26.16
2022-08-28T17:49:03.475Z,26.11
2022-08-28T17:51:42.753Z,25.97
2022-08-28T17:54:18.267Z,25.86
2022-08-28T17:56:46.455Z,25.80
2022-08-28T17:59:14.888Z,25.65
2022-08-28T18:01:44.849Z,25.53
2022-08-28T18:04:17.021Z,25.45
2022-08-28T18:06:47.769Z,25.36
2022-08-28T18:09:15.512Z,25.24
2022-08-28T18:11:43.273Z,25.17
2022-08-28T18:14:10.826Z,25.08
2022-08-28T18:16:39.350Z,24.98
2022-08-28T18:19:10.446Z,24.90
2022-08-28T18:21:39.388Z,24.87
2022-08-28T18:24:07.808Z,24.77
2022-08-28T18:26:35.285Z,24.65
2022-08-28T18:29:03.155Z,24.64
2022-08-28T18:31:30.770Z,24.56
2022-08-28T18:33:58.321Z,24.46
2022-08-28T18:36:26.124Z,24.43
2022-08-28T18:38:53.833Z,24.34
2022-08-28T18:41:22.116Z,24.34
2022-08-28T18:43:58.528Z,24.32
2022-08-28T18:46:32.491Z,24.33
2022-08-28T18:49:00.324Z,24.32
2022-08-28T18:51:32.197Z,24.30
2022-08-28T18:54:01.516Z,24.27
2022-08-28T18:56:32.253Z,24.26
2022-08-28T18:59:01.921Z,24.21
2022-08-28T19:01:29.463Z,24.17
2022-08-28T19:03:57.027Z,24.08
2022-08-28T19:06:24.699Z,24.00
2022-08-28T19:08:52.164Z,23.93
2022-08-28T19:11:19.856Z,23.92
2022-08-28T19:13:47.688Z,23.88
2022-08-28T19:16:17.621Z,23.88
2022-08-28T19:18:45.883Z,23.88
2022-08-28T19:21:19.691Z,23.92
2022-08-28T19:23:55.403Z,23.92
2022-08-28T19:26:25.447Z,23.93
2022-08-28T19:28:53.396Z,23.94
2022-08-28T19:31:21.368Z,23.93
2022-08-28T19:33:49.424Z,23.92
2022-08-28T19:36:18.339Z,23.92
2022-08-28T19:38:46.033Z,23.83
2022-08-28T19:41:14.458Z,23.81
2022-08-28T19:43:44.210Z,23.79
2022-08-28T19:46:19.787Z,23.76
2022-08-28T19:48:49.907Z,23.80
2022-08-28T19:51:22.539Z,23.86
2022-08-28T19:53:57.354Z,23.92
2022-08-28T19:56:31.454Z,23.90
2022-08-28T19:59:02.496Z,23.88
2022-08-28T20:01:33.465Z,23.85
2022-08-28T20:04:01.337Z,23.81
2022-08-28T20:06:31.681Z,23.81
2022-08-28T20:09:01.283Z,23.80
2022-08-28T20:11:30.675Z,23.80
2022-08-28T20:14:04.478Z,23.79
2022-08-28T20:16:35.667Z,23.71
2022-08-28T20:19:05.158Z,23.66
2022-08-28T20:21:37.589Z,23.67
2022-08-28T20:24:08.683Z,23.63
2022-08-28T20:26:37.132Z,23.57
2022-08-28T20:29:07.333Z,23.52
2022-08-28T20:31:40.408Z,23.50
2022-08-28T20:34:10.454Z,23.45
2022-08-28T20:36:38.220Z,23.43
2022-08-28T20:39:09.140Z,23.40
2022-08-28T20:41:39.203Z,23.31
2022-08-28T20:44:09.268Z,23.29
2022-08-28T20:46:41.339Z,23.26
2022-08-28T20:49:11.436Z,23.23
2022-08-28T20:51:54.461Z,23.20
2022-08-28T20:54:44.371Z,23.15
2022-08-28T20:57:16.157Z,23.06
2022-08-28T20:59:46.070Z,23.03
2022-08-28T21:02:19.752Z,23.00
2022-08-28T21:04:47.648Z,22.95
2022-08-28T21:07:18.092Z,22.84
2022-08-28T21:10:05.424Z,22.85
2022-08-28T21:12:34.325Z,22.77
2022-08-28T21:15:02.153Z,22.76
2022-08-28T21:17:31.057Z,22.73
2022-08-28T21:20:06.039Z,22.70
2022-08-28T21:22:35.246Z,22.69
2022-08-28T21:25:06.276Z,22.66
2022-08-28T21:27:34.127Z,22.63
2022-08-28T21:30:02.294Z,22.62
2022-08-28T21:32:32.587Z,22.58
2022-08-28T21:35:02.193Z,22.59
2022-08-28T21:37:30.120Z,22.59
2022-08-28T21:40:00.737Z,22.54
2022-08-28T21:42:28.733Z,22.50
2022-08-28T21:44:56.532Z,22.56
2022-08-28T21:47:24.364Z,22.54
2022-08-28T21:49:54.711Z,22.47
2022-08-28T21:52:25.382Z,22.51
2022-08-28T21:55:01.332Z,22.50
2022-08-28T21:57:29.639Z,22.45
2022-08-28T21:59:57.346Z,22.45
2022-08-28T22:02:25.245Z,22.43
2022-08-28T22:04:53.696Z,22.43
2022-08-28T22:07:21.492Z,22.09
2022-08-28T22:09:49.388Z,22.17
2022-08-28T22:12:17.263Z,22.11
2022-08-28T22:14:44.912Z,22.12
2022-08-28T22:17:12.981Z,22.22
2022-08-28T22:19:41.237Z,22.16
2022-08-28T22:22:28.108Z,22.17
2022-08-28T22:24:59.940Z,22.06
2022-08-28T22:27:27.821Z,22.11
2022-08-28T22:29:55.895Z,22.14
2022-08-28T22:32:26.706Z,22.14
2022-08-28T22:34:55.243Z,22.20
2022-08-28T22:37:23.304Z,22.22
2022-08-28T22:39:50.932Z,22.25
2022-08-28T22:42:18.595Z,22.13
2022-08-28T22:44:47.337Z,22.08
2022-08-28T22:47:14.821Z,22.12
2022-08-28T22:49:42.661Z,22.12
2022-08-28T22:52:11.504Z,22.14
2022-08-28T22:54:39.244Z,22.16
2022-08-28T22:57:06.963Z,22.18
2022-08-28T22:59:34.993Z,22.20
2022-08-28T23:02:03.743Z,22.21
2022-08-28T23:04:31.334Z,22.22
2022-08-28T23:06:59.066Z,22.22
2022-08-28T23:09:27.530Z,22.10
2022-08-28T23:11:54.989Z,22.22
2022-08-28T23:14:27.824Z,22.24
2022-08-28T23:16:55.989Z,22.22
2022-08-28T23:19:24.388Z,22.18
2022-08-28T23:21:52.372Z,21.87
2022-08-28T23:24:19.881Z,21.83
2022-08-28T23:26:47.710Z,21.83
2022-08-28T23:29:15.729Z,21.78
2022-08-28T23:31:43.376Z,21.86
2022-08-28T23:34:10.982Z,21.90
2022-08-28T23:36:39.320Z,21.91
2022-08-28T23:39:07.310Z,21.89
2022-08-28T23:41:34.836Z,21.85
2022-08-28T23:44:08.299Z,21.82
2022-08-28T23:46:36.784Z,21.81
2022-08-28T23:49:10.457Z,21.76
2022-08-28T23:51:38.523Z,21.75
2022-08-28T23:54:07.299Z,21.68
2022-08-28T23:56:35.855Z,21.73
2022-08-28T23:59:05.035Z,21.69
